Flight Track Log - Related Links

Times and Time Zones

All times are in EDT time to prevent confusion due to time zone crossing. See the AWI3551 flight status page for this flight to view local times or setup timezone preferences in your user account.

Time Position Orientation Groundspeed Altitude Reporting Facility
EDT Latitude Longitude Course Direction KTS MPH feet Rate Location/Type
Wed 06:11:26 AM 42.9333 -78.7500 174° South 152 175 1,500  Level Buffalo TRACON
Wed 06:13:22 AM 42.8253 -78.7658 186° South 251 289 4,900 1,773 Climbing Cleveland Center
Wed 06:14:00 AM 42.5131 -78.6633 173° South  Level FlightAware Approximate
Wed 06:14:22 AM 42.7500 -78.7567 175° South 259 298 6,700  Level Cleveland Center
Wed 06:15:00 AM 42.4078 -78.6500 180° South  Level FlightAware Approximate
Wed 06:15:22 AM 42.6686 -78.7392 171° South 279 321 8,500  Level Cleveland Center
Wed 06:16:00 AM 42.3024 -78.6408 174° South  Level FlightAware Approximate
Wed 06:16:22 AM 42.5953 -78.7189 168° South 286 329 10,500  Level Cleveland Center
Wed 06:17:22 AM 42.5075 -78.7017 172° South 299 344 12,400 1,850 Climbing Cleveland Center
Wed 06:18:22 AM 42.4217 -78.6847 172° South 328 377 14,200 1,650 Climbing Cleveland Center
Wed 06:19:22 AM 42.3275 -78.6650 171° South 340 391 15,700 1,500 Climbing Cleveland Center
Wed 06:20:22 AM 42.2314 -78.6456 171° South 350 403 17,200 1,400 Climbing Cleveland Center
Wed 06:21:22 AM 42.1311 -78.6289 173° South 357 411 18,500 1,300 Climbing Cleveland Center
Wed 06:22:22 AM 42.0308 -78.6236 178° South 362 417 19,800 1,150 Climbing Cleveland Center
Wed 06:23:22 AM 41.9308 -78.6267 181° South 367 422 20,800 900 Climbing Cleveland Center
Wed 06:24:22 AM 41.8244 -78.6186 177° South 367 422 21,600 850 Climbing Cleveland Center
Wed 06:25:22 AM 41.7236 -78.5772 163° South 372 428 22,500 700 Climbing Cleveland Center
Wed 06:26:22 AM 41.6242 -78.5025 151° Southeast 380 437 23,000 250 Climbing Cleveland Center
Wed 06:27:22 AM 41.5228 -78.4281 151° Southeast 401 461 23,000  Level Cleveland Center
Wed 06:28:22 AM 41.4236 -78.3567 152° Southeast 412 474 23,000  Level Cleveland Center
Wed 06:29:15 AM 41.3253 -78.2861 152° Southeast 406 467 23,000  Level New York Center
Wed 06:30:16 AM 41.2256 -78.2142 152° Southeast 406 467 23,000  Level New York Center
Wed 06:31:16 AM 41.1258 -78.1425 152° Southeast 406 467 23,000  Level New York Center
Wed 06:32:17 AM 41.0261 -78.0714 152° Southeast 406 467 23,000  Level New York Center
Wed 06:33:15 AM 40.9300 -78.0033 152° Southeast 400 460 23,000  Level New York Center
Wed 06:34:16 AM 40.8492 -77.8958 135° Southeast 400 460 23,000  Level New York Center
Wed 06:35:16 AM 40.7767 -77.7842 131° Southeast 400 460 23,000  Level New York Center
Wed 06:36:15 AM 40.7017 -77.6725 132° Southeast 405 466 23,000 -555 Level New York Center
Wed 06:37:15 AM 40.6292 -77.5583 130° Southeast 405 466 21,900 -1,180 Descending New York Center
Wed 06:38:17 AM 40.5542 -77.4472 132° Southeast 405 466 20,600 -1,268 Descending New York Center
Wed 06:39:18 AM 40.4811 -77.3392 132° Southeast 400 460 19,300 -807 Descending New York Center
Wed 06:40:16 AM 40.4392 -77.2314 117° Southeast 377 434 19,000 -153 Descending New York Center
Wed 06:41:16 AM 40.4069 -77.0922 107° East 367 422 19,000  Level New York Center
Wed 06:42:15 AM 40.3778 -76.9722 108° East 372 428 19,000 -250 Level New York Center
Wed 06:43:16 AM 40.3472 -76.8414 107° East 379 436 18,500 -992 Descending New York Center
Wed 06:44:16 AM 40.3144 -76.7053 107° East 379 436 17,000 -1,587 Descending New York Center
Wed 06:45:17 AM 40.2778 -76.5606 108° East 384 442 15,300 -1,574 Descending New York Center
Wed 06:46:18 AM 40.2486 -76.4303 106° East 379 436 13,800 -1,475 Descending New York Center
Wed 06:47:15 AM 40.2172 -76.3053 108° East 368 423 12,400 -1,538 Descending New York Center
Wed 06:48:15 AM 40.1875 -76.1808 107° East 361 415 10,800 -1,240 Descending New York Center
Wed 06:49:16 AM 40.1597 -76.0589 107° East 352 405 9,900 -843 Descending New York Center
Wed 06:50:16 AM 40.1333 -75.9483 107° East 332 382 9,100 -744 Descending New York Center
Wed 06:51:17 AM 40.1061 -75.8542 111° Southeast 325 374 8,400 -807 Descending New York Center
Wed 06:52:15 AM 40.0800 -75.7328 106° East 309 356 7,500 -908 Descending New York Center
Wed 06:53:16 AM 40.0758 -75.6322 93° East 309 356 6,600 -689 Descending New York Center
Wed 06:54:17 AM 40.0725 -75.5097 92° East 309 356 6,100 -252 Descending New York Center
Wed 06:55:15 AM 40.0744 -75.4094 89° East 309 356 6,100 -50 Level New York Center
Wed 06:56:18 AM 40.0772 -75.2850 88° East 309 356 6,000 -47 Descending New York Center
Wed 06:57:24 AM 40.0667 -75.1500 96° East 306 352 6,000 -619 Level Philadelphia TRACON
Wed 06:58:24 AM 40.0667 -75.0500 90° East 300 345 4,700 -1,000 Descending Philadelphia TRACON
Wed 06:59:24 AM 40.0333 -74.9667 118° Southeast 260 299 4,000 -368 Descending Philadelphia TRACON
Wed 07:00:18 AM 39.9667 -74.9500 169° South 263 303 4,000 -263 Level Philadelphia TRACON
Wed 07:01:18 AM 39.9333 -75.0000 229° Southwest 150 173 3,500 -500 Descending Philadelphia TRACON

Login

Don't have an account? Register now (free) for customized features, flight alerts, and more!